sensor_id;sensor_type;location;lat;lon;timestamp;pressure;altitude;pressure_sealevel;temperature;humidity
32251;BME280;41295;48.518;9.206;2023-04-23T00:00:48;96595.47;;;14.83;60.46
32251;BME280;41295;48.518;9.206;2023-04-23T00:02:53;96599.41;;;14.75;60.63
32251;BME280;41295;48.518;9.206;2023-04-23T00:04:56;96596.38;;;14.82;61.08
32251;BME280;41295;48.518;9.206;2023-04-23T00:07:06;96593.28;;;14.89;60.16
32251;BME280;41295;48.518;9.206;2023-04-23T00:09:12;96593.75;;;14.82;60.59
32251;BME280;41295;48.518;9.206;2023-04-23T00:11:16;96590.03;;;14.71;60.70
32251;BME280;41295;48.518;9.206;2023-04-23T00:13:19;96598.19;;;14.81;60.20
32251;BME280;41295;48.518;9.206;2023-04-23T00:15:22;96591.53;;;14.75;60.33
32251;BME280;41295;48.518;9.206;2023-04-23T00:17:25;96593.31;;;14.75;60.88
32251;BME280;41295;48.518;9.206;2023-04-23T00:19:27;96591.91;;;14.69;60.74
32251;BME280;41295;48.518;9.206;2023-04-23T00:21:30;96592.66;;;14.71;60.45
32251;BME280;41295;48.518;9.206;2023-04-23T00:23:33;96590.88;;;14.72;60.69
32251;BME280;41295;48.518;9.206;2023-04-23T00:25:36;96599.69;;;14.71;60.73
32251;BME280;41295;48.518;9.206;2023-04-23T00:27:39;96595.69;;;14.65;60.81
32251;BME280;41295;48.518;9.206;2023-04-23T00:29:42;96590.78;;;14.73;60.88
32251;BME280;41295;48.518;9.206;2023-04-23T00:31:46;96599.56;;;14.72;60.13
32251;BME280;41295;48.518;9.206;2023-04-23T00:33:49;96592.94;;;14.81;59.81
32251;BME280;41295;48.518;9.206;2023-04-23T00:35:51;96599.94;;;14.81;59.48
32251;BME280;41295;48.518;9.206;2023-04-23T00:37:54;96597.25;;;14.67;59.82
32251;BME280;41295;48.518;9.206;2023-04-23T00:39:57;96600.63;;;14.70;59.87
32251;BME280;41295;48.518;9.206;2023-04-23T00:42:00;96599.66;;;14.85;58.73
32251;BME280;41295;48.518;9.206;2023-04-23T00:44:10;96605.19;;;14.81;59.10
32251;BME280;41295;48.518;9.206;2023-04-23T00:46:15;96597.38;;;15.07;57.87
32251;BME280;41295;48.518;9.206;2023-04-23T00:48:18;96600.44;;;15.00;57.93
32251;BME280;41295;48.518;9.206;2023-04-23T00:50:22;96601.72;;;14.80;58.66
32251;BME280;41295;48.518;9.206;2023-04-23T00:52:24;96602.56;;;14.81;58.42
32251;BME280;41295;48.518;9.206;2023-04-23T00:54:27;96602.66;;;14.79;58.81
32251;BME280;41295;48.518;9.206;2023-04-23T00:56:29;96593.81;;;14.95;58.20
32251;BME280;41295;48.518;9.206;2023-04-23T00:58:33;96600.53;;;14.99;58.78
32251;BME280;41295;48.518;9.206;2023-04-23T01:00:41;96607.31;;;14.88;59.41
32251;BME280;41295;48.518;9.206;2023-04-23T01:02:47;96604.84;;;15.00;58.71
32251;BME280;41295;48.518;9.206;2023-04-23T01:04:51;96615.41;;;14.85;59.33
32251;BME280;41295;48.518;9.206;2023-04-23T01:06:55;96612.50;;;14.90;59.69
32251;BME280;41295;48.518;9.206;2023-04-23T01:08:59;96617.66;;;14.77;60.57
32251;BME280;41295;48.518;9.206;2023-04-23T01:11:02;96614.41;;;14.73;60.70
32251;BME280;41295;48.518;9.206;2023-04-23T01:13:05;96615.78;;;14.79;61.54
32251;BME280;41295;48.518;9.206;2023-04-23T01:15:09;96627.63;;;14.72;61.51
32251;BME280;41295;48.518;9.206;2023-04-23T01:17:12;96626.44;;;14.63;61.69
32251;BME280;41295;48.518;9.206;2023-04-23T01:19:15;96630.63;;;14.65;62.04
32251;BME280;41295;48.518;9.206;2023-04-23T01:21:18;96625.16;;;14.55;62.28
32251;BME280;41295;48.518;9.206;2023-04-23T01:23:22;96621.97;;;14.50;63.06
32251;BME280;41295;48.518;9.206;2023-04-23T01:25:27;96628.66;;;14.69;63.10
32251;BME280;41295;48.518;9.206;2023-04-23T01:27:30;96629.59;;;14.68;62.83
32251;BME280;41295;48.518;9.206;2023-04-23T01:29:37;96619.25;;;14.52;63.19
32251;BME280;41295;48.518;9.206;2023-04-23T01:31:40;96619.06;;;14.55;63.35
32251;BME280;41295;48.518;9.206;2023-04-23T01:33:43;96628.97;;;14.64;63.07
32251;BME280;41295;48.518;9.206;2023-04-23T01:35:47;96622.22;;;14.60;63.98
32251;BME280;41295;48.518;9.206;2023-04-23T01:37:52;96634.16;;;14.51;63.95
32251;BME280;41295;48.518;9.206;2023-04-23T01:39:57;96632.47;;;14.50;63.78
32251;BME280;41295;48.518;9.206;2023-04-23T01:42:01;96650.66;;;14.39;64.48
32251;BME280;41295;48.518;9.206;2023-04-23T01:44:04;96637.31;;;14.29;64.97
32251;BME280;41295;48.518;9.206;2023-04-23T01:46:07;96644.88;;;14.34;65.14
32251;BME280;41295;48.518;9.206;2023-04-23T01:48:10;96648.91;;;14.25;65.69
32251;BME280;41295;48.518;9.206;2023-04-23T01:50:13;96641.69;;;14.28;65.79
32251;BME280;41295;48.518;9.206;2023-04-23T01:52:16;96648.38;;;14.19;66.28
32251;BME280;41295;48.518;9.206;2023-04-23T01:54:19;96658.94;;;14.18;66.52
32251;BME280;41295;48.518;9.206;2023-04-23T01:56:24;96652.09;;;14.15;66.80
32251;BME280;41295;48.518;9.206;2023-04-23T01:58:28;96650.72;;;14.10;67.35
32251;BME280;41295;48.518;9.206;2023-04-23T02:00:30;96659.41;;;14.10;67.73
32251;BME280;41295;48.518;9.206;2023-04-23T02:02:33;96660.16;;;14.12;67.44
32251;BME280;41295;48.518;9.206;2023-04-23T02:04:37;96654.00;;;13.99;68.00
32251;BME280;41295;48.518;9.206;2023-04-23T02:06:41;96658.75;;;14.06;67.66
32251;BME280;41295;48.518;9.206;2023-04-23T02:08:45;96666.56;;;13.93;68.31
32251;BME280;41295;48.518;9.206;2023-04-23T02:10:47;96657.00;;;13.92;68.54
32251;BME280;41295;48.518;9.206;2023-04-23T02:12:51;96661.22;;;13.95;68.59
32251;BME280;41295;48.518;9.206;2023-04-23T02:14:54;96658.94;;;13.89;68.93
32251;BME280;41295;48.518;9.206;2023-04-23T02:16:56;96659.22;;;14.13;68.19
32251;BME280;41295;48.518;9.206;2023-04-23T02:18:59;96661.31;;;13.93;68.86
32251;BME280;41295;48.518;9.206;2023-04-23T02:21:02;96669.53;;;13.87;69.21
32251;BME280;41295;48.518;9.206;2023-04-23T02:23:05;96664.84;;;13.92;69.47
32251;BME280;41295;48.518;9.206;2023-04-23T02:25:08;96673.19;;;13.85;69.93
32251;BME280;41295;48.518;9.206;2023-04-23T02:27:11;96659.34;;;13.82;70.31
32251;BME280;41295;48.518;9.206;2023-04-23T02:29:15;96664.59;;;13.82;70.40
32251;BME280;41295;48.518;9.206;2023-04-23T02:31:18;96664.03;;;13.77;70.99
32251;BME280;41295;48.518;9.206;2023-04-23T02:33:21;96666.75;;;13.76;71.52
32251;BME280;41295;48.518;9.206;2023-04-23T02:35:23;96669.53;;;13.73;71.85
32251;BME280;41295;48.518;9.206;2023-04-23T02:37:27;96668.03;;;13.68;72.18
32251;BME280;41295;48.518;9.206;2023-04-23T02:39:29;96675.72;;;13.71;72.48
32251;BME280;41295;48.518;9.206;2023-04-23T02:41:32;96675.06;;;13.82;72.03
32251;BME280;41295;48.518;9.206;2023-04-23T02:43:35;96676.47;;;13.74;72.42
32251;BME280;41295;48.518;9.206;2023-04-23T02:45:39;96671.69;;;13.66;72.77
32251;BME280;41295;48.518;9.206;2023-04-23T02:47:41;96672.72;;;13.63;72.89
32251;BME280;41295;48.518;9.206;2023-04-23T02:49:44;96677.19;;;13.61;72.86
32251;BME280;41295;48.518;9.206;2023-04-23T02:51:46;96668.78;;;13.56;73.19
32251;BME280;41295;48.518;9.206;2023-04-23T02:53:49;96671.88;;;13.63;72.99
32251;BME280;41295;48.518;9.206;2023-04-23T02:55:51;96665.41;;;13.54;73.13
32251;BME280;41295;48.518;9.206;2023-04-23T02:57:54;96668.13;;;13.52;73.65
32251;BME280;41295;48.518;9.206;2023-04-23T02:59:56;96661.25;;;13.50;73.74
32251;BME280;41295;48.518;9.206;2023-04-23T03:02:00;96657.78;;;13.49;74.09
32251;BME280;41295;48.518;9.206;2023-04-23T03:04:03;96650.09;;;13.46;74.49
32251;BME280;41295;48.518;9.206;2023-04-23T03:06:06;96656.59;;;13.55;74.28
32251;BME280;41295;48.518;9.206;2023-04-23T03:08:09;96654.84;;;13.55;74.18
32251;BME280;41295;48.518;9.206;2023-04-23T03:10:12;96654.41;;;13.47;74.43
32251;BME280;41295;48.518;9.206;2023-04-23T03:12:14;96652.91;;;13.43;75.05
32251;BME280;41295;48.518;9.206;2023-04-23T03:14:18;96642.53;;;13.41;74.98
32251;BME280;41295;48.518;9.206;2023-04-23T03:16:21;96653.81;;;13.42;75.30
32251;BME280;41295;48.518;9.206;2023-04-23T03:18:25;96664.34;;;13.56;74.93
32251;BME280;41295;48.518;9.206;2023-04-23T03:20:27;96660.16;;;13.54;75.06
32251;BME280;41295;48.518;9.206;2023-04-23T03:22:30;96658.06;;;13.44;75.29
32251;BME280;41295;48.518;9.206;2023-04-23T03:24:33;96660.09;;;13.39;75.68
32251;BME280;41295;48.518;9.206;2023-04-23T03:26:36;96658.44;;;13.38;75.83
32251;BME280;41295;48.518;9.206;2023-04-23T03:28:38;96654.88;;;13.39;75.99
32251;BME280;41295;48.518;9.206;2023-04-23T03:30:41;96657.66;;;13.36;75.93
32251;BME280;41295;48.518;9.206;2023-04-23T03:32:44;96653.19;;;13.38;75.99
32251;BME280;41295;48.518;9.206;2023-04-23T03:34:48;96653.19;;;13.38;75.78
32251;BME280;41295;48.518;9.206;2023-04-23T03:36:50;96648.78;;;13.39;75.77
32251;BME280;41295;48.518;9.206;2023-04-23T03:38:53;96652.34;;;13.38;75.57
32251;BME280;41295;48.518;9.206;2023-04-23T03:40:56;96647.00;;;13.39;75.51
32251;BME280;41295;48.518;9.206;2023-04-23T03:42:58;96648.69;;;13.40;75.79
32251;BME280;41295;48.518;9.206;2023-04-23T03:45:01;96631.97;;;13.43;75.75
32251;BME280;41295;48.518;9.206;2023-04-23T03:47:03;96642.16;;;13.47;75.56
32251;BME280;41295;48.518;9.206;2023-04-23T03:49:06;96641.69;;;13.41;75.93
32251;BME280;41295;48.518;9.206;2023-04-23T03:51:10;96648.97;;;13.35;75.82
32251;BME280;41295;48.518;9.206;2023-04-23T03:53:12;96649.16;;;13.32;75.89
32251;BME280;41295;48.518;9.206;2023-04-23T03:55:15;96654.50;;;13.31;76.34
32251;BME280;41295;48.518;9.206;2023-04-23T03:57:19;96658.03;;;13.30;76.30
32251;BME280;41295;48.518;9.206;2023-04-23T03:59:22;96659.88;;;13.28;76.41
32251;BME280;41295;48.518;9.206;2023-04-23T04:01:24;96658.69;;;13.33;76.09
32251;BME280;41295;48.518;9.206;2023-04-23T04:03:27;96659.72;;;13.31;75.78
32251;BME280;41295;48.518;9.206;2023-04-23T04:05:30;96663.94;;;13.48;73.90
32251;BME280;41295;48.518;9.206;2023-04-23T04:07:34;96665.41;;;13.54;73.39
32251;BME280;41295;48.518;9.206;2023-04-23T04:09:37;96670.03;;;13.49;73.82
32251;BME280;41295;48.518;9.206;2023-04-23T04:11:40;96668.16;;;13.36;74.72
32251;BME280;41295;48.518;9.206;2023-04-23T04:13:43;96670.63;;;13.23;75.25
32251;BME280;41295;48.518;9.206;2023-04-23T04:15:45;96668.28;;;13.18;75.74
32251;BME280;41295;48.518;9.206;2023-04-23T04:17:48;96675.47;;;13.15;75.99
32251;BME280;41295;48.518;9.206;2023-04-23T04:19:50;96673.88;;;13.12;76.53
32251;BME280;41295;48.518;9.206;2023-04-23T04:21:53;96673.88;;;13.12;76.50
32251;BME280;41295;48.518;9.206;2023-04-23T04:23:57;96669.47;;;13.13;76.83
32251;BME280;41295;48.518;9.206;2023-04-23T04:26:01;96669.03;;;13.20;76.07
32251;BME280;41295;48.518;9.206;2023-04-23T04:28:05;96669.69;;;13.24;75.61
32251;BME280;41295;48.518;9.206;2023-04-23T04:30:10;96671.00;;;13.17;76.11
32251;BME280;41295;48.518;9.206;2023-04-23T04:32:12;96668.63;;;13.12;76.43
32251;BME280;41295;48.518;9.206;2023-04-23T04:34:15;96668.81;;;13.09;76.68
32251;BME280;41295;48.518;9.206;2023-04-23T04:36:18;96674.81;;;13.11;76.56
32251;BME280;41295;48.518;9.206;2023-04-23T04:38:20;96678.84;;;13.17;75.84
32251;BME280;41295;48.518;9.206;2023-04-23T04:40:25;96672.84;;;13.15;76.00
32251;BME280;41295;48.518;9.206;2023-04-23T04:42:28;96673.44;;;13.20;75.45
32251;BME280;41295;48.518;9.206;2023-04-23T04:44:31;96665.09;;;13.13;76.06
32251;BME280;41295;48.518;9.206;2023-04-23T04:46:34;96665.91;;;13.14;76.24
32251;BME280;41295;48.518;9.206;2023-04-23T04:48:40;96658.34;;;13.09;76.74
32251;BME280;41295;48.518;9.206;2023-04-23T04:50:43;96662.38;;;13.15;76.36
32251;BME280;41295;48.518;9.206;2023-04-23T04:52:46;96658.34;;;13.09;76.47
32251;BME280;41295;48.518;9.206;2023-04-23T04:54:49;96668.06;;;13.07;76.59
32251;BME280;41295;48.518;9.206;2023-04-23T04:56:53;96665.44;;;13.07;76.60
32251;BME280;41295;48.518;9.206;2023-04-23T04:58:55;96660.38;;;13.04;76.51
32251;BME280;41295;48.518;9.206;2023-04-23T05:00:58;96659.81;;;12.98;76.91
32251;BME280;41295;48.518;9.206;2023-04-23T05:03:01;96659.72;;;13.00;76.68
32251;BME280;41295;48.518;9.206;2023-04-23T05:05:05;96656.25;;;12.99;76.64
32251;BME280;41295;48.518;9.206;2023-04-23T05:07:09;96664.28;;;12.96;76.74
32251;BME280;41295;48.518;9.206;2023-04-23T05:09:11;96664.38;;;12.95;76.69
32251;BME280;41295;48.518;9.206;2023-04-23T05:11:16;96667.19;;;12.92;76.56
32251;BME280;41295;48.518;9.206;2023-04-23T05:13:21;96672.47;;;12.90;76.84
32251;BME280;41295;48.518;9.206;2023-04-23T05:15:24;96672.66;;;12.87;76.96
32251;BME280;41295;48.518;9.206;2023-04-23T05:17:26;96677.94;;;13.02;75.74
32251;BME280;41295;48.518;9.206;2023-04-23T05:19:29;96672.72;;;13.02;75.53
32251;BME280;41295;48.518;9.206;2023-04-23T05:21:32;96679.72;;;13.01;75.55
32251;BME280;41295;48.518;9.206;2023-04-23T05:23:35;96670.81;;;12.89;76.10
32251;BME280;41295;48.518;9.206;2023-04-23T05:25:38;96674.25;;;12.90;76.59
32251;BME280;41295;48.518;9.206;2023-04-23T05:27:41;96670.53;;;12.94;76.22
32251;BME280;41295;48.518;9.206;2023-04-23T05:29:45;96676.78;;;12.91;76.28
32251;BME280;41295;48.518;9.206;2023-04-23T05:31:47;96669.03;;;12.90;76.34
32251;BME280;41295;48.518;9.206;2023-04-23T05:33:51;96669.84;;;12.90;76.23
32251;BME280;41295;48.518;9.206;2023-04-23T05:35:54;96674.50;;;12.85;76.08
32251;BME280;41295;48.518;9.206;2023-04-23T05:37:57;96662.47;;;12.82;76.26
32251;BME280;41295;48.518;9.206;2023-04-23T05:40:00;96657.41;;;12.79;76.43
32251;BME280;41295;48.518;9.206;2023-04-23T05:42:05;96661.78;;;12.79;76.72
32251;BME280;41295;48.518;9.206;2023-04-23T05:44:07;96659.00;;;12.82;76.87
32251;BME280;41295;48.518;9.206;2023-04-23T05:46:11;96659.97;;;12.95;75.96
32251;BME280;41295;48.518;9.206;2023-04-23T05:48:14;96663.91;;;12.88;75.84
32251;BME280;41295;48.518;9.206;2023-04-23T05:50:17;96651.72;;;12.87;76.12
32251;BME280;41295;48.518;9.206;2023-04-23T05:52:19;96649.28;;;12.84;76.08
32251;BME280;41295;48.518;9.206;2023-04-23T05:54:22;96643.09;;;12.85;76.40
32251;BME280;41295;48.518;9.206;2023-04-23T05:56:24;96645.38;;;12.91;76.41
32251;BME280;41295;48.518;9.206;2023-04-23T05:58:27;96650.16;;;12.99;76.37
32251;BME280;41295;48.518;9.206;2023-04-23T06:00:29;96648.88;;;12.92;76.60
32251;BME280;41295;48.518;9.206;2023-04-23T06:02:34;96658.09;;;12.97;76.91
32251;BME280;41295;48.518;9.206;2023-04-23T06:04:36;96663.63;;;12.93;76.71
32251;BME280;41295;48.518;9.206;2023-04-23T06:06:41;96658.66;;;12.88;77.02
32251;BME280;41295;48.518;9.206;2023-04-23T06:08:43;96654.34;;;12.87;77.11
32251;BME280;41295;48.518;9.206;2023-04-23T06:10:46;96656.97;;;12.87;77.35
32251;BME280;41295;48.518;9.206;2023-04-23T06:12:49;96662.38;;;12.84;77.15
32251;BME280;41295;48.518;9.206;2023-04-23T06:14:52;96666.66;;;12.85;76.89
32251;BME280;41295;48.518;9.206;2023-04-23T06:16:54;96661.34;;;12.86;76.81
32251;BME280;41295;48.518;9.206;2023-04-23T06:18:58;96664.00;;;13.01;75.47
32251;BME280;41295;48.518;9.206;2023-04-23T06:21:00;96662.84;;;12.91;75.79
32251;BME280;41295;48.518;9.206;2023-04-23T06:23:04;96668.34;;;13.02;74.82
32251;BME280;41295;48.518;9.206;2023-04-23T06:25:08;96669.25;;;13.01;74.50
32251;BME280;41295;48.518;9.206;2023-04-23T06:27:11;96661.97;;;13.06;74.32
32251;BME280;41295;48.518;9.206;2023-04-23T06:29:14;96667.97;;;13.08;73.90
32251;BME280;41295;48.518;9.206;2023-04-23T06:31:17;96663.50;;;13.10;73.84
32251;BME280;41295;48.518;9.206;2023-04-23T06:33:19;96660.25;;;13.21;73.18
32251;BME280;41295;48.518;9.206;2023-04-23T06:35:23;96654.91;;;13.23;72.86
32251;BME280;41295;48.518;9.206;2023-04-23T06:37:26;96654.06;;;13.22;72.98
32251;BME280;41295;48.518;9.206;2023-04-23T06:39:30;96661.69;;;13.27;72.85
32251;BME280;41295;48.518;9.206;2023-04-23T06:41:33;96661.63;;;13.43;70.80
32251;BME280;41295;48.518;9.206;2023-04-23T06:43:36;96659.53;;;13.34;71.02
32251;BME280;41295;48.518;9.206;2023-04-23T06:45:38;96656.53;;;13.40;71.17
32251;BME280;41295;48.518;9.206;2023-04-23T06:47:41;96659.06;;;13.42;71.48
32251;BME280;41295;48.518;9.206;2023-04-23T06:49:43;96661.78;;;13.40;71.64
32251;BME280;41295;48.518;9.206;2023-04-23T06:51:47;96663.56;;;13.40;71.36
32251;BME280;41295;48.518;9.206;2023-04-23T06:53:50;96655.63;;;13.41;70.97
32251;BME280;41295;48.518;9.206;2023-04-23T06:55:52;96655.44;;;13.44;70.87
32251;BME280;41295;48.518;9.206;2023-04-23T06:57:55;96645.38;;;13.53;70.53
32251;BME280;41295;48.518;9.206;2023-04-23T06:59:58;96646.22;;;13.68;69.12
32251;BME280;41295;48.518;9.206;2023-04-23T07:02:00;96643.06;;;13.77;69.19
32251;BME280;41295;48.518;9.206;2023-04-23T07:04:03;96642.00;;;13.65;69.09
32251;BME280;41295;48.518;9.206;2023-04-23T07:06:06;96634.53;;;13.74;67.30
32251;BME280;41295;48.518;9.206;2023-04-23T07:08:09;96632.50;;;13.79;67.51
32251;BME280;41295;48.518;9.206;2023-04-23T07:10:14;96635.84;;;13.66;68.63
32251;BME280;41295;48.518;9.206;2023-04-23T07:12:18;96643.06;;;13.63;69.50
32251;BME280;41295;48.518;9.206;2023-04-23T07:14:21;96643.41;;;13.71;69.92
32251;BME280;41295;48.518;9.206;2023-04-23T07:16:23;96635.66;;;13.84;67.08
32251;BME280;41295;48.518;9.206;2023-04-23T07:18:26;96633.03;;;13.69;67.94
32251;BME280;41295;48.518;9.206;2023-04-23T07:20:28;96641.28;;;13.63;68.01
32251;BME280;41295;48.518;9.206;2023-04-23T07:22:31;96637.81;;;13.63;67.93
32251;BME280;41295;48.518;9.206;2023-04-23T07:24:35;96641.34;;;13.62;67.90
32251;BME280;41295;48.518;9.206;2023-04-23T07:26:38;96624.06;;;13.74;67.31
32251;BME280;41295;48.518;9.206;2023-04-23T07:28:41;96625.63;;;13.76;67.37
32251;BME280;41295;48.518;9.206;2023-04-23T07:30:43;96624.72;;;13.77;67.80
32251;BME280;41295;48.518;9.206;2023-04-23T07:32:46;96624.72;;;13.77;67.44
32251;BME280;41295;48.518;9.206;2023-04-23T07:34:49;96617.88;;;13.75;67.07
32251;BME280;41295;48.518;9.206;2023-04-23T07:36:51;96614.31;;;13.90;65.81
32251;BME280;41295;48.518;9.206;2023-04-23T07:38:54;96617.13;;;13.87;65.53
32251;BME280;41295;48.518;9.206;2023-04-23T07:40:58;96623.78;;;13.93;65.72
32251;BME280;41295;48.518;9.206;2023-04-23T07:43:00;96609.72;;;13.94;65.81
32251;BME280;41295;48.518;9.206;2023-04-23T07:45:04;96604.53;;;14.22;62.35
32251;BME280;41295;48.518;9.206;2023-04-23T07:47:07;96605.50;;;14.06;63.38
32251;BME280;41295;48.518;9.206;2023-04-23T07:49:09;96606.72;;;14.00;63.90
32251;BME280;41295;48.518;9.206;2023-04-23T07:51:12;96604.22;;;13.99;64.14
32251;BME280;41295;48.518;9.206;2023-04-23T07:53:14;96602.41;;;13.99;64.13
32251;BME280;41295;48.518;9.206;2023-04-23T07:55:17;96594.53;;;13.99;64.12
32251;BME280;41295;48.518;9.206;2023-04-23T07:57:22;96600.63;;;14.14;64.10
32251;BME280;41295;48.518;9.206;2023-04-23T07:59:24;96612.00;;;14.28;62.10
32251;BME280;41295;48.518;9.206;2023-04-23T08:01:27;96611.56;;;14.21;61.94
32251;BME280;41295;48.518;9.206;2023-04-23T08:03:30;96615.69;;;14.11;62.30
32251;BME280;41295;48.518;9.206;2023-04-23T08:05:32;96619.75;;;14.29;61.27
32251;BME280;41295;48.518;9.206;2023-04-23T08:07:37;96612.69;;;14.17;62.22
32251;BME280;41295;48.518;9.206;2023-04-23T08:09:40;96610.03;;;14.31;61.01
32251;BME280;41295;48.518;9.206;2023-04-23T08:11:43;96614.84;;;14.52;60.81
32251;BME280;41295;48.518;9.206;2023-04-23T08:13:47;96613.06;;;14.81;59.20
32251;BME280;41295;48.518;9.206;2023-04-23T08:15:50;96607.28;;;14.48;60.09
32251;BME280;41295;48.518;9.206;2023-04-23T08:17:53;96597.13;;;14.56;60.05
32251;BME280;41295;48.518;9.206;2023-04-23T08:19:56;96598.00;;;14.70;59.31
32251;BME280;41295;48.518;9.206;2023-04-23T08:21:58;96590.41;;;14.52;59.93
32251;BME280;41295;48.518;9.206;2023-04-23T08:24:01;96591.91;;;14.56;60.53
32251;BME280;41295;48.518;9.206;2023-04-23T08:26:04;96584.66;;;14.60;59.25
32251;BME280;41295;48.518;9.206;2023-04-23T08:28:07;96584.50;;;14.48;59.18
32251;BME280;41295;48.518;9.206;2023-04-23T08:30:12;96578.41;;;14.48;58.64
32251;BME280;41295;48.518;9.206;2023-04-23T08:32:14;96586.13;;;14.64;58.51
32251;BME280;41295;48.518;9.206;2023-04-23T08:34:19;96588.00;;;14.62;58.06
32251;BME280;41295;48.518;9.206;2023-04-23T08:36:22;96592.16;;;14.79;58.70
32251;BME280;41295;48.518;9.206;2023-04-23T08:38:24;96584.69;;;14.73;58.73
32251;BME280;41295;48.518;9.206;2023-04-23T08:40:30;96577.72;;;14.86;57.52
32251;BME280;41295;48.518;9.206;2023-04-23T08:42:37;96569.22;;;14.83;58.02
32251;BME280;41295;48.518;9.206;2023-04-23T08:44:41;96573.63;;;14.82;57.94
32251;BME280;41295;48.518;9.206;2023-04-23T08:46:45;96570.00;;;14.70;57.93
32251;BME280;41295;48.518;9.206;2023-04-23T08:48:51;96568.09;;;14.72;57.15
32251;BME280;41295;48.518;9.206;2023-04-23T08:50:55;96566.72;;;14.66;56.87
32251;BME280;41295;48.518;9.206;2023-04-23T08:52:58;96571.03;;;14.67;56.79
32251;BME280;41295;48.518;9.206;2023-04-23T08:55:03;96572.16;;;14.63;56.87
32251;BME280;41295;48.518;9.206;2023-04-23T08:57:11;96572.47;;;14.59;57.09
32251;BME280;41295;48.518;9.206;2023-04-23T08:59:15;96569.09;;;14.57;57.95
32251;BME280;41295;48.518;9.206;2023-04-23T09:01:18;96569.00;;;14.58;58.35
32251;BME280;41295;48.518;9.206;2023-04-23T09:03:23;96565.19;;;14.77;57.44
32251;BME280;41295;48.518;9.206;2023-04-23T09:05:26;96557.91;;;14.67;57.93
32251;BME280;41295;48.518;9.206;2023-04-23T09:07:29;96567.66;;;14.65;57.95
32251;BME280;41295;48.518;9.206;2023-04-23T09:09:32;96557.19;;;14.78;57.46
32251;BME280;41295;48.518;9.206;2023-04-23T09:11:36;96559.44;;;14.85;58.17
32251;BME280;41295;48.518;9.206;2023-04-23T09:13:38;96560.28;;;14.85;57.45
32251;BME280;41295;48.518;9.206;2023-04-23T09:15:42;96549.22;;;14.80;57.51
32251;BME280;41295;48.518;9.206;2023-04-23T09:17:46;96540.59;;;14.78;57.45
32251;BME280;41295;48.518;9.206;2023-04-23T09:19:52;96543.69;;;14.85;57.35
32251;BME280;41295;48.518;9.206;2023-04-23T09:21:59;96537.53;;;14.99;57.50
32251;BME280;41295;48.518;9.206;2023-04-23T09:24:03;96523.88;;;15.07;56.65
32251;BME280;41295;48.518;9.206;2023-04-23T09:26:07;96519.88;;;15.14;57.35
32251;BME280;41295;48.518;9.206;2023-04-23T09:28:09;96523.88;;;15.20;57.76
32251;BME280;41295;48.518;9.206;2023-04-23T09:30:13;96517.91;;;15.31;57.52
32251;BME280;41295;48.518;9.206;2023-04-23T09:32:15;96526.69;;;15.30;58.32
32251;BME280;41295;48.518;9.206;2023-04-23T09:34:19;96529.84;;;15.35;58.85
32251;BME280;41295;48.518;9.206;2023-04-23T09:36:24;96534.88;;;15.51;58.51
32251;BME280;41295;48.518;9.206;2023-04-23T09:38:28;96533.50;;;15.71;55.95
32251;BME280;41295;48.518;9.206;2023-04-23T09:40:32;96533.91;;;15.78;54.16
32251;BME280;41295;48.518;9.206;2023-04-23T09:42:35;96535.69;;;15.78;53.52
32251;BME280;41295;48.518;9.206;2023-04-23T09:44:38;96531.41;;;15.63;53.81
32251;BME280;41295;48.518;9.206;2023-04-23T09:46:42;96529.28;;;15.69;53.79
32251;BME280;41295;48.518;9.206;2023-04-23T09:48:45;96517.94;;;15.68;54.73
32251;BME280;41295;48.518;9.206;2023-04-23T09:50:49;96518.88;;;15.67;55.66
32251;BME280;41295;48.518;9.206;2023-04-23T09:52:54;96520.06;;;15.63;56.18
32251;BME280;41295;48.518;9.206;2023-04-23T09:54:57;96513.88;;;15.88;55.06
32251;BME280;41295;48.518;9.206;2023-04-23T09:57:00;96512.94;;;15.90;53.76
32251;BME280;41295;48.518;9.206;2023-04-23T09:59:18;96511.38;;;15.87;54.25
32251;BME280;41295;48.518;9.206;2023-04-23T10:01:29;96513.53;;;16.06;54.67
32251;BME280;41295;48.518;9.206;2023-04-23T10:03:32;96502.44;;;15.90;54.40
32251;BME280;41295;48.518;9.206;2023-04-23T10:05:37;96500.34;;;15.82;55.01
32251;BME280;41295;48.518;9.206;2023-04-23T10:08:01;96488.47;;;15.76;55.27
32251;BME280;41295;48.518;9.206;2023-04-23T10:10:05;96488.16;;;15.81;55.12
32251;BME280;41295;48.518;9.206;2023-04-23T10:12:09;96483.84;;;15.80;55.53
32251;BME280;41295;48.518;9.206;2023-04-23T10:14:15;96480.16;;;15.82;56.71
32251;BME280;41295;48.518;9.206;2023-04-23T10:16:20;96477.19;;;16.00;57.41
32251;BME280;41295;48.518;9.206;2023-04-23T10:18:31;96480.31;;;16.05;58.09
32251;BME280;41295;48.518;9.206;2023-04-23T10:20:34;96481.94;;;16.19;58.41
32251;BME280;41295;48.518;9.206;2023-04-23T10:22:39;96473.75;;;16.35;56.57
32251;BME280;41295;48.518;9.206;2023-04-23T10:24:51;96475.53;;;16.35;55.93
32251;BME280;41295;48.518;9.206;2023-04-23T10:26:57;96473.31;;;16.42;54.17
32251;BME280;41295;48.518;9.206;2023-04-23T10:29:04;96468.06;;;16.42;56.16
32251;BME280;41295;48.518;9.206;2023-04-23T10:31:09;96458.22;;;16.44;55.31
32251;BME280;41295;48.518;9.206;2023-04-23T10:33:13;96454.41;;;16.37;55.29
32251;BME280;41295;48.518;9.206;2023-04-23T10:35:32;96453.44;;;16.38;55.76
32251;BME280;41295;48.518;9.206;2023-04-23T10:37:36;96444.81;;;16.35;56.25
32251;BME280;41295;48.518;9.206;2023-04-23T10:39:42;96438.16;;;16.43;56.38
32251;BME280;41295;48.518;9.206;2023-04-23T10:41:47;96436.38;;;16.43;56.52
32251;BME280;41295;48.518;9.206;2023-04-23T10:43:51;96435.88;;;16.50;56.60
32251;BME280;41295;48.518;9.206;2023-04-23T10:45:54;96429.84;;;16.72;53.30
32251;BME280;41295;48.518;9.206;2023-04-23T10:47:57;96427.56;;;16.79;52.75
32251;BME280;41295;48.518;9.206;2023-04-23T10:50:17;96433.69;;;16.91;51.75
32251;BME280;41295;48.518;9.206;2023-04-23T10:52:19;96422.78;;;16.84;51.76
32251;BME280;41295;48.518;9.206;2023-04-23T10:54:30;96421.00;;;16.85;53.17